sensor_id;sensor_type;location;lat;lon;timestamp;P1;durP1;ratioP1;P2;durP2;ratioP2
53775;SDS011;44276;49.534;6.378;2023-08-12T00:00:31;13.25;;;9.27;;
53775;SDS011;44276;49.534;6.378;2023-08-12T00:03:00;15.57;;;8.98;;
53775;SDS011;44276;49.534;6.378;2023-08-12T00:05:28;14.23;;;9.50;;
53775;SDS011;44276;49.534;6.378;2023-08-12T00:07:57;11.77;;;8.32;;
53775;SDS011;44276;49.534;6.378;2023-08-12T00:10:25;11.60;;;6.40;;
53775;SDS011;44276;49.534;6.378;2023-08-12T00:12:53;14.18;;;8.55;;
53775;SDS011;44276;49.534;6.378;2023-08-12T00:15:23;15.30;;;8.60;;
53775;SDS011;44276;49.534;6.378;2023-08-12T00:17:51;9.82;;;5.13;;
53775;SDS011;44276;49.534;6.378;2023-08-12T00:20:20;5.43;;;3.80;;
53775;SDS011;44276;49.534;6.378;2023-08-12T00:22:48;7.90;;;4.82;;
53775;SDS011;44276;49.534;6.378;2023-08-12T00:25:16;7.05;;;5.00;;
53775;SDS011;44276;49.534;6.378;2023-08-12T00:27:45;7.30;;;5.22;;
53775;SDS011;44276;49.534;6.378;2023-08-12T00:30:13;6.78;;;4.10;;
53775;SDS011;44276;49.534;6.378;2023-08-12T00:32:43;6.25;;;4.20;;
53775;SDS011;44276;49.534;6.378;2023-08-12T00:35:11;8.48;;;4.30;;
53775;SDS011;44276;49.534;6.378;2023-08-12T00:37:39;10.98;;;5.13;;
53775;SDS011;44276;49.534;6.378;2023-08-12T00:40:08;5.85;;;4.38;;
53775;SDS011;44276;49.534;6.378;2023-08-12T00:42:38;8.52;;;5.53;;
53775;SDS011;44276;49.534;6.378;2023-08-12T00:45:07;8.45;;;5.20;;
53775;SDS011;44276;49.534;6.378;2023-08-12T00:47:39;10.43;;;5.00;;
53775;SDS011;44276;49.534;6.378;2023-08-12T00:50:10;12.38;;;5.43;;
53775;SDS011;44276;49.534;6.378;2023-08-12T00:52:42;8.10;;;6.22;;
53775;SDS011;44276;49.534;6.378;2023-08-12T00:55:11;8.55;;;6.00;;
53775;SDS011;44276;49.534;6.378;2023-08-12T00:57:39;10.57;;;7.25;;
53775;SDS011;44276;49.534;6.378;2023-08-12T01:00:08;9.38;;;6.43;;
53775;SDS011;44276;49.534;6.378;2023-08-12T01:02:38;11.95;;;6.90;;
53775;SDS011;44276;49.534;6.378;2023-08-12T01:05:06;11.55;;;6.97;;
53775;SDS011;44276;49.534;6.378;2023-08-12T01:07:37;11.00;;;6.38;;
53775;SDS011;44276;49.534;6.378;2023-08-12T01:10:05;17.40;;;7.50;;
53775;SDS011;44276;49.534;6.378;2023-08-12T01:12:39;13.55;;;7.93;;
53775;SDS011;44276;49.534;6.378;2023-08-12T01:15:18;11.57;;;7.38;;
53775;SDS011;44276;49.534;6.378;2023-08-12T01:17:50;15.50;;;7.53;;
53775;SDS011;44276;49.534;6.378;2023-08-12T01:20:21;13.00;;;8.65;;
53775;SDS011;44276;49.534;6.378;2023-08-12T01:22:57;9.40;;;7.60;;
53775;SDS011;44276;49.534;6.378;2023-08-12T01:25:34;12.25;;;8.20;;
53775;SDS011;44276;49.534;6.378;2023-08-12T01:28:03;16.95;;;9.13;;
53775;SDS011;44276;49.534;6.378;2023-08-12T01:30:32;20.38;;;9.95;;
53775;SDS011;44276;49.534;6.378;2023-08-12T01:33:08;16.52;;;9.65;;
53775;SDS011;44276;49.534;6.378;2023-08-12T01:35:47;19.42;;;10.38;;
53775;SDS011;44276;49.534;6.378;2023-08-12T01:38:23;16.37;;;9.70;;
53775;SDS011;44276;49.534;6.378;2023-08-12T01:40:56;17.40;;;10.55;;
53775;SDS011;44276;49.534;6.378;2023-08-12T01:43:26;15.55;;;9.93;;
53775;SDS011;44276;49.534;6.378;2023-08-12T01:45:55;18.25;;;10.35;;
53775;SDS011;44276;49.534;6.378;2023-08-12T01:48:24;25.08;;;11.55;;
53775;SDS011;44276;49.534;6.378;2023-08-12T01:50:52;18.13;;;11.70;;
53775;SDS011;44276;49.534;6.378;2023-08-12T01:53:20;21.38;;;12.38;;
53775;SDS011;44276;49.534;6.378;2023-08-12T01:55:51;18.38;;;11.88;;
53775;SDS011;44276;49.534;6.378;2023-08-12T01:58:20;22.80;;;12.27;;
53775;SDS011;44276;49.534;6.378;2023-08-12T02:00:48;19.67;;;11.27;;
53775;SDS011;44276;49.534;6.378;2023-08-12T02:03:16;22.73;;;13.00;;
53775;SDS011;44276;49.534;6.378;2023-08-12T02:05:44;18.83;;;12.15;;
53775;SDS011;44276;49.534;6.378;2023-08-12T02:08:13;31.25;;;14.75;;
53775;SDS011;44276;49.534;6.378;2023-08-12T02:10:41;20.60;;;12.77;;
53775;SDS011;44276;49.534;6.378;2023-08-12T02:13:11;26.73;;;12.65;;
53775;SDS011;44276;49.534;6.378;2023-08-12T02:15:39;22.05;;;12.13;;
53775;SDS011;44276;49.534;6.378;2023-08-12T02:18:07;22.52;;;12.45;;
53775;SDS011;44276;49.534;6.378;2023-08-12T02:20:35;18.67;;;12.38;;
53775;SDS011;44276;49.534;6.378;2023-08-12T02:23:03;17.45;;;11.80;;
53775;SDS011;44276;49.534;6.378;2023-08-12T02:25:31;18.55;;;12.93;;
53775;SDS011;44276;49.534;6.378;2023-08-12T02:27:59;17.48;;;11.57;;
53775;SDS011;44276;49.534;6.378;2023-08-12T02:30:30;23.13;;;12.60;;
53775;SDS011;44276;49.534;6.378;2023-08-12T02:32:58;21.90;;;12.68;;
53775;SDS011;44276;49.534;6.378;2023-08-12T02:35:26;23.40;;;12.35;;
53775;SDS011;44276;49.534;6.378;2023-08-12T02:37:54;23.75;;;13.55;;
53775;SDS011;44276;49.534;6.378;2023-08-12T02:40:23;21.98;;;13.02;;
53775;SDS011;44276;49.534;6.378;2023-08-12T02:42:51;23.48;;;13.40;;
53775;SDS011;44276;49.534;6.378;2023-08-12T02:45:19;23.02;;;13.20;;
53775;SDS011;44276;49.534;6.378;2023-08-12T02:47:48;24.17;;;13.43;;
53775;SDS011;44276;49.534;6.378;2023-08-12T02:50:17;27.83;;;13.82;;
53775;SDS011;44276;49.534;6.378;2023-08-12T02:52:45;29.95;;;16.33;;
53775;SDS011;44276;49.534;6.378;2023-08-12T02:55:13;29.02;;;16.27;;
53775;SDS011;44276;49.534;6.378;2023-08-12T02:57:41;25.08;;;14.68;;
53775;SDS011;44276;49.534;6.378;2023-08-12T03:00:10;26.40;;;15.85;;
53775;SDS011;44276;49.534;6.378;2023-08-12T03:02:41;23.58;;;15.05;;
53775;SDS011;44276;49.534;6.378;2023-08-12T03:05:12;25.67;;;15.38;;
53775;SDS011;44276;49.534;6.378;2023-08-12T03:07:40;22.17;;;13.75;;
53775;SDS011;44276;49.534;6.378;2023-08-12T03:10:08;31.48;;;16.13;;
53775;SDS011;44276;49.534;6.378;2023-08-12T03:12:37;30.27;;;17.27;;
53775;SDS011;44276;49.534;6.378;2023-08-12T03:15:06;30.10;;;16.67;;
53775;SDS011;44276;49.534;6.378;2023-08-12T03:17:35;36.20;;;16.27;;
53775;SDS011;44276;49.534;6.378;2023-08-12T03:20:05;28.50;;;16.25;;
53775;SDS011;44276;49.534;6.378;2023-08-12T03:22:36;28.70;;;17.75;;
53775;SDS011;44276;49.534;6.378;2023-08-12T03:25:05;35.33;;;17.55;;
53775;SDS011;44276;49.534;6.378;2023-08-12T03:27:34;28.50;;;17.25;;
53775;SDS011;44276;49.534;6.378;2023-08-12T03:30:03;32.60;;;17.70;;
53775;SDS011;44276;49.534;6.378;2023-08-12T03:32:32;26.13;;;16.40;;
53775;SDS011;44276;49.534;6.378;2023-08-12T03:35:00;26.52;;;15.57;;
53775;SDS011;44276;49.534;6.378;2023-08-12T03:37:29;26.48;;;16.45;;
53775;SDS011;44276;49.534;6.378;2023-08-12T03:39:58;26.98;;;15.75;;
53775;SDS011;44276;49.534;6.378;2023-08-12T03:42:27;28.25;;;15.82;;
53775;SDS011;44276;49.534;6.378;2023-08-12T03:44:55;28.55;;;16.38;;
53775;SDS011;44276;49.534;6.378;2023-08-12T03:47:23;26.95;;;16.40;;
53775;SDS011;44276;49.534;6.378;2023-08-12T03:49:51;32.78;;;17.65;;
53775;SDS011;44276;49.534;6.378;2023-08-12T03:52:19;25.85;;;15.68;;
53775;SDS011;44276;49.534;6.378;2023-08-12T03:54:47;29.10;;;15.48;;
53775;SDS011;44276;49.534;6.378;2023-08-12T03:57:17;26.17;;;15.05;;
53775;SDS011;44276;49.534;6.378;2023-08-12T03:59:45;25.02;;;14.73;;
53775;SDS011;44276;49.534;6.378;2023-08-12T04:02:13;27.63;;;15.18;;
53775;SDS011;44276;49.534;6.378;2023-08-12T04:04:41;23.30;;;14.73;;
53775;SDS011;44276;49.534;6.378;2023-08-12T04:07:10;27.42;;;14.82;;
53775;SDS011;44276;49.534;6.378;2023-08-12T04:09:39;23.92;;;15.50;;
53775;SDS011;44276;49.534;6.378;2023-08-12T04:12:07;23.42;;;13.82;;
53775;SDS011;44276;49.534;6.378;2023-08-12T04:14:36;25.23;;;16.58;;
53775;SDS011;44276;49.534;6.378;2023-08-12T04:17:07;23.77;;;15.45;;
53775;SDS011;44276;49.534;6.378;2023-08-12T04:19:35;30.83;;;15.52;;
53775;SDS011;44276;49.534;6.378;2023-08-12T04:22:03;22.48;;;14.57;;
53775;SDS011;44276;49.534;6.378;2023-08-12T04:24:32;21.40;;;14.23;;
53775;SDS011;44276;49.534;6.378;2023-08-12T04:27:00;24.70;;;15.30;;
53775;SDS011;44276;49.534;6.378;2023-08-12T04:29:28;31.95;;;16.10;;
53775;SDS011;44276;49.534;6.378;2023-08-12T04:31:57;31.90;;;16.05;;
53775;SDS011;44276;49.534;6.378;2023-08-12T04:34:26;32.55;;;17.40;;
53775;SDS011;44276;49.534;6.378;2023-08-12T04:36:54;29.58;;;15.07;;
53775;SDS011;44276;49.534;6.378;2023-08-12T04:39:22;40.20;;;18.48;;
53775;SDS011;44276;49.534;6.378;2023-08-12T04:41:51;44.78;;;19.98;;
53775;SDS011;44276;49.534;6.378;2023-08-12T04:44:19;40.90;;;18.08;;
53775;SDS011;44276;49.534;6.378;2023-08-12T04:46:47;52.22;;;19.85;;
53775;SDS011;44276;49.534;6.378;2023-08-12T04:49:17;44.47;;;19.48;;
53775;SDS011;44276;49.534;6.378;2023-08-12T04:51:46;37.53;;;19.05;;
53775;SDS011;44276;49.534;6.378;2023-08-12T04:54:14;40.75;;;19.60;;
53775;SDS011;44276;49.534;6.378;2023-08-12T04:56:42;32.08;;;17.13;;
53775;SDS011;44276;49.534;6.378;2023-08-12T04:59:10;30.67;;;17.08;;
53775;SDS011;44276;49.534;6.378;2023-08-12T05:01:39;36.75;;;18.98;;
53775;SDS011;44276;49.534;6.378;2023-08-12T05:04:29;23.52;;;14.68;;
53775;SDS011;44276;49.534;6.378;2023-08-12T05:06:57;25.95;;;15.68;;
53775;SDS011;44276;49.534;6.378;2023-08-12T05:09:25;29.48;;;16.10;;
53775;SDS011;44276;49.534;6.378;2023-08-12T05:11:53;25.98;;;15.52;;
53775;SDS011;44276;49.534;6.378;2023-08-12T05:14:21;29.13;;;15.00;;
53775;SDS011;44276;49.534;6.378;2023-08-12T05:16:50;25.05;;;14.23;;
53775;SDS011;44276;49.534;6.378;2023-08-12T05:19:18;22.67;;;14.23;;
53775;SDS011;44276;49.534;6.378;2023-08-12T05:21:47;24.77;;;15.00;;
53775;SDS011;44276;49.534;6.378;2023-08-12T05:24:15;24.55;;;14.77;;
53775;SDS011;44276;49.534;6.378;2023-08-12T05:26:43;25.42;;;15.13;;
53775;SDS011;44276;49.534;6.378;2023-08-12T05:29:12;20.98;;;13.57;;
53775;SDS011;44276;49.534;6.378;2023-08-12T05:31:40;21.45;;;13.82;;
53775;SDS011;44276;49.534;6.378;2023-08-12T05:34:08;24.35;;;14.40;;
53775;SDS011;44276;49.534;6.378;2023-08-12T05:36:37;20.20;;;14.02;;
53775;SDS011;44276;49.534;6.378;2023-08-12T05:39:06;19.40;;;12.80;;
53775;SDS011;44276;49.534;6.378;2023-08-12T05:41:34;18.35;;;12.25;;
53775;SDS011;44276;49.534;6.378;2023-08-12T05:44:02;21.48;;;12.05;;
53775;SDS011;44276;49.534;6.378;2023-08-12T05:46:31;14.80;;;10.85;;
53775;SDS011;44276;49.534;6.378;2023-08-12T05:49:00;13.20;;;7.38;;
53775;SDS011;44276;49.534;6.378;2023-08-12T05:51:28;8.32;;;5.10;;
53775;SDS011;44276;49.534;6.378;2023-08-12T05:53:56;8.60;;;3.95;;
53775;SDS011;44276;49.534;6.378;2023-08-12T05:56:26;7.80;;;4.22;;
53775;SDS011;44276;49.534;6.378;2023-08-12T05:58:54;11.18;;;4.20;;
53775;SDS011;44276;49.534;6.378;2023-08-12T06:01:22;3.72;;;2.70;;
53775;SDS011;44276;49.534;6.378;2023-08-12T06:03:50;9.15;;;3.95;;
53775;SDS011;44276;49.534;6.378;2023-08-12T06:06:18;4.72;;;2.72;;
53775;SDS011;44276;49.534;6.378;2023-08-12T06:08:48;5.03;;;3.30;;
53775;SDS011;44276;49.534;6.378;2023-08-12T06:11:16;7.82;;;3.15;;
53775;SDS011;44276;49.534;6.378;2023-08-12T06:13:45;4.90;;;3.30;;
53775;SDS011;44276;49.534;6.378;2023-08-12T06:16:13;5.47;;;3.38;;
53775;SDS011;44276;49.534;6.378;2023-08-12T06:18:41;6.53;;;3.40;;
53775;SDS011;44276;49.534;6.378;2023-08-12T06:21:10;11.60;;;5.50;;
53775;SDS011;44276;49.534;6.378;2023-08-12T06:23:38;8.10;;;4.72;;
53775;SDS011;44276;49.534;6.378;2023-08-12T06:26:06;7.18;;;4.13;;
53775;SDS011;44276;49.534;6.378;2023-08-12T06:28:34;7.30;;;4.13;;
53775;SDS011;44276;49.534;6.378;2023-08-12T06:31:04;7.90;;;4.15;;
53775;SDS011;44276;49.534;6.378;2023-08-12T06:33:32;7.05;;;3.80;;
53775;SDS011;44276;49.534;6.378;2023-08-12T06:36:00;6.10;;;3.55;;
53775;SDS011;44276;49.534;6.378;2023-08-12T06:38:28;5.80;;;3.65;;
53775;SDS011;44276;49.534;6.378;2023-08-12T06:40:56;9.48;;;3.47;;
53775;SDS011;44276;49.534;6.378;2023-08-12T06:43:24;4.50;;;3.50;;
53775;SDS011;44276;49.534;6.378;2023-08-12T06:45:55;5.10;;;2.97;;
53775;SDS011;44276;49.534;6.378;2023-08-12T06:48:25;6.50;;;3.47;;
53775;SDS011;44276;49.534;6.378;2023-08-12T06:50:53;9.38;;;3.95;;
53775;SDS011;44276;49.534;6.378;2023-08-12T06:53:25;4.45;;;2.90;;
53775;SDS011;44276;49.534;6.378;2023-08-12T06:55:54;5.00;;;3.28;;
53775;SDS011;44276;49.534;6.378;2023-08-12T06:58:22;6.50;;;3.25;;
53775;SDS011;44276;49.534;6.378;2023-08-12T07:00:51;3.60;;;2.80;;
53775;SDS011;44276;49.534;6.378;2023-08-12T07:03:19;4.55;;;2.63;;
53775;SDS011;44276;49.534;6.378;2023-08-12T07:05:51;12.88;;;3.22;;
53775;SDS011;44276;49.534;6.378;2023-08-12T07:08:19;7.15;;;3.30;;
53775;SDS011;44276;49.534;6.378;2023-08-12T07:10:48;3.55;;;2.78;;
53775;SDS011;44276;49.534;6.378;2023-08-12T07:13:16;4.75;;;2.60;;
53775;SDS011;44276;49.534;6.378;2023-08-12T07:15:44;4.60;;;3.45;;
53775;SDS011;44276;49.534;6.378;2023-08-12T07:18:13;4.47;;;3.40;;
53775;SDS011;44276;49.534;6.378;2023-08-12T07:20:41;5.43;;;2.53;;
53775;SDS011;44276;49.534;6.378;2023-08-12T07:23:13;5.18;;;3.10;;
53775;SDS011;44276;49.534;6.378;2023-08-12T07:25:42;5.25;;;3.80;;
53775;SDS011;44276;49.534;6.378;2023-08-12T07:28:10;5.88;;;3.28;;
53775;SDS011;44276;49.534;6.378;2023-08-12T07:30:38;4.78;;;2.33;;
53775;SDS011;44276;49.534;6.378;2023-08-12T07:33:06;6.30;;;3.22;;
53775;SDS011;44276;49.534;6.378;2023-08-12T07:35:35;3.95;;;3.15;;
53775;SDS011;44276;49.534;6.378;2023-08-12T07:38:03;6.05;;;3.25;;
53775;SDS011;44276;49.534;6.378;2023-08-12T07:40:33;4.55;;;2.80;;
53775;SDS011;44276;49.534;6.378;2023-08-12T07:43:02;10.32;;;4.15;;
53775;SDS011;44276;49.534;6.378;2023-08-12T07:45:31;6.20;;;3.30;;
53775;SDS011;44276;49.534;6.378;2023-08-12T07:48:00;6.20;;;3.50;;
53775;SDS011;44276;49.534;6.378;2023-08-12T07:50:28;9.52;;;3.85;;
53775;SDS011;44276;49.534;6.378;2023-08-12T07:52:57;8.93;;;4.78;;
53775;SDS011;44276;49.534;6.378;2023-08-12T07:55:25;7.57;;;3.22;;
53775;SDS011;44276;49.534;6.378;2023-08-12T07:57:57;7.45;;;3.47;;
53775;SDS011;44276;49.534;6.378;2023-08-12T08:00:25;6.30;;;3.65;;
53775;SDS011;44276;49.534;6.378;2023-08-12T08:02:53;9.20;;;5.03;;
53775;SDS011;44276;49.534;6.378;2023-08-12T08:05:21;7.75;;;4.90;;
53775;SDS011;44276;49.534;6.378;2023-08-12T08:07:51;10.70;;;4.78;;
53775;SDS011;44276;49.534;6.378;2023-08-12T08:10:20;10.73;;;5.93;;
53775;SDS011;44276;49.534;6.378;2023-08-12T08:12:48;6.47;;;4.78;;
53775;SDS011;44276;49.534;6.378;2023-08-12T08:15:18;14.77;;;5.15;;
53775;SDS011;44276;49.534;6.378;2023-08-12T08:17:46;6.85;;;4.95;;
53775;SDS011;44276;49.534;6.378;2023-08-12T08:20:14;9.00;;;4.25;;
53775;SDS011;44276;49.534;6.378;2023-08-12T08:22:42;8.77;;;4.10;;
53775;SDS011;44276;49.534;6.378;2023-08-12T08:25:11;7.03;;;3.50;;
53775;SDS011;44276;49.534;6.378;2023-08-12T08:27:39;6.53;;;3.17;;
53775;SDS011;44276;49.534;6.378;2023-08-12T08:30:10;3.88;;;3.17;;
53775;SDS011;44276;49.534;6.378;2023-08-12T08:32:40;4.90;;;2.72;;
53775;SDS011;44276;49.534;6.378;2023-08-12T08:35:08;7.03;;;3.45;;
53775;SDS011;44276;49.534;6.378;2023-08-12T08:37:37;6.55;;;2.88;;
53775;SDS011;44276;49.534;6.378;2023-08-12T08:40:06;3.88;;;2.58;;
53775;SDS011;44276;49.534;6.378;2023-08-12T08:42:35;5.13;;;2.80;;
53775;SDS011;44276;49.534;6.378;2023-08-12T08:45:06;4.88;;;2.85;;
53775;SDS011;44276;49.534;6.378;2023-08-12T08:47:42;8.17;;;3.83;;
53775;SDS011;44276;49.534;6.378;2023-08-12T08:50:12;4.63;;;2.95;;
53775;SDS011;44276;49.534;6.378;2023-08-12T08:52:42;3.80;;;2.83;;
53775;SDS011;44276;49.534;6.378;2023-08-12T08:55:10;5.68;;;3.40;;
53775;SDS011;44276;49.534;6.378;2023-08-12T08:57:40;5.82;;;2.55;;
53775;SDS011;44276;49.534;6.378;2023-08-12T09:00:14;6.57;;;3.42;;
53775;SDS011;44276;49.534;6.378;2023-08-12T09:02:46;5.10;;;3.20;;
53775;SDS011;44276;49.534;6.378;2023-08-12T09:05:15;7.05;;;3.40;;
53775;SDS011;44276;49.534;6.378;2023-08-12T09:07:47;7.97;;;3.60;;
53775;SDS011;44276;49.534;6.378;2023-08-12T09:10:17;7.25;;;3.70;;
53775;SDS011;44276;49.534;6.378;2023-08-12T09:12:55;6.88;;;4.43;;
53775;SDS011;44276;49.534;6.378;2023-08-12T09:15:25;8.07;;;3.65;;
53775;SDS011;44276;49.534;6.378;2023-08-12T09:17:56;5.07;;;2.97;;
53775;SDS011;44276;49.534;6.378;2023-08-12T09:20:24;8.10;;;4.32;;
53775;SDS011;44276;49.534;6.378;2023-08-12T09:22:57;7.38;;;3.95;;
53775;SDS011;44276;49.534;6.378;2023-08-12T09:25:26;11.40;;;4.53;;
53775;SDS011;44276;49.534;6.378;2023-08-12T09:27:58;10.30;;;4.70;;
53775;SDS011;44276;49.534;6.378;2023-08-12T09:30:28;15.43;;;3.65;;
53775;SDS011;44276;49.534;6.378;2023-08-12T09:33:00;5.05;;;4.13;;
53775;SDS011;44276;49.534;6.378;2023-08-12T09:35:34;7.00;;;3.30;;
53775;SDS011;44276;49.534;6.378;2023-08-12T09:38:05;5.32;;;4.38;;
53775;SDS011;44276;49.534;6.378;2023-08-12T09:40:36;9.00;;;4.47;;
53775;SDS011;44276;49.534;6.378;2023-08-12T09:43:05;10.38;;;5.20;;
53775;SDS011;44276;49.534;6.378;2023-08-12T09:45:34;7.57;;;5.00;;
53775;SDS011;44276;49.534;6.378;2023-08-12T09:48:04;9.75;;;5.60;;
53775;SDS011;44276;49.534;6.378;2023-08-12T09:50:35;10.05;;;6.20;;
53775;SDS011;44276;49.534;6.378;2023-08-12T09:53:03;11.52;;;7.15;;
53775;SDS011;44276;49.534;6.378;2023-08-12T09:55:32;10.05;;;5.88;;
53775;SDS011;44276;49.534;6.378;2023-08-12T09:58:03;12.90;;;7.60;;
53775;SDS011;44276;49.534;6.378;2023-08-12T10:00:37;14.68;;;8.38;;
53775;SDS011;44276;49.534;6.378;2023-08-12T10:03:09;13.75;;;8.07;;
53775;SDS011;44276;49.534;6.378;2023-08-12T10:05:40;14.55;;;8.02;;
53775;SDS011;44276;49.534;6.378;2023-08-12T10:08:09;12.52;;;8.77;;
53775;SDS011;44276;49.534;6.378;2023-08-12T10:10:41;12.18;;;7.43;;
53775;SDS011;44276;49.534;6.378;2023-08-12T10:13:14;10.70;;;6.30;;
53775;SDS011;44276;49.534;6.378;2023-08-12T10:15:43;19.48;;;7.65;;
53775;SDS011;44276;49.534;6.378;2023-08-12T10:18:14;8.15;;;6.45;;
53775;SDS011;44276;49.534;6.378;2023-08-12T10:20:43;10.43;;;4.65;;
53775;SDS011;44276;49.534;6.378;2023-08-12T10:23:13;9.85;;;3.88;;
53775;SDS011;44276;49.534;6.378;2023-08-12T10:25:44;6.32;;;3.40;;
53775;SDS011;44276;49.534;6.378;2023-08-12T10:28:14;9.02;;;4.03;;
53775;SDS011;44276;49.534;6.378;2023-08-12T10:30:46;6.07;;;3.85;;
53775;SDS011;44276;49.534;6.378;2023-08-12T10:33:16;11.48;;;3.80;;
53775;SDS011;44276;49.534;6.378;2023-08-12T10:35:45;4.22;;;3.13;;
53775;SDS011;44276;49.534;6.378;2023-08-12T10:38:17;3.97;;;2.45;;
53775;SDS011;44276;49.534;6.378;2023-08-12T10:40:47;4.30;;;2.38;;
53775;SDS011;44276;49.534;6.378;2023-08-12T10:43:17;3.90;;;2.17;;
53775;SDS011;44276;49.534;6.378;2023-08-12T10:45:49;6.13;;;1.90;;
53775;SDS011;44276;49.534;6.378;2023-08-12T10:48:25;2.30;;;1.50;;
53775;SDS011;44276;49.534;6.378;2023-08-12T10:50:55;4.50;;;2.38;;
53775;SDS011;44276;49.534;6.378;2023-08-12T10:53:26;4.50;;;1.27;;
53775;SDS011;44276;49.534;6.378;2023-08-12T10:56:01;5.20;;;1.38;;
53775;SDS011;44276;49.534;6.378;2023-08-12T10:58:33;1.90;;;0.88;;
53775;SDS011;44276;49.534;6.378;2023-08-12T11:01:08;3.67;;;1.83;;
53775;SDS011;44276;49.534;6.378;2023-08-12T11:03:45;1.57;;;1.33;;
53775;SDS011;44276;49.534;6.378;2023-08-12T11:06:15;2.97;;;1.48;;
53775;SDS011;44276;49.534;6.378;2023-08-12T11:08:45;3.63;;;0.85;;
53775;SDS011;44276;49.534;6.378;2023-08-12T11:11:18;3.17;;;0.93;;
53775;SDS011;44276;49.534;6.378;2023-08-12T11:13:52;2.17;;;1.17;;
53775;SDS011;44276;49.534;6.378;2023-08-12T11:16:30;5.07;;;1.50;;
53775;SDS011;44276;49.534;6.378;2023-08-12T11:19:04;4.85;;;1.30;;
53775;SDS011;44276;49.534;6.378;2023-08-12T11:21:33;4.78;;;1.13;;
53775;SDS011;44276;49.534;6.378;2023-08-12T11:24:04;2.45;;;1.10;;
53775;SDS011;44276;49.534;6.378;2023-08-12T11:26:33;1.77;;;0.98;;
53775;SDS011;44276;49.534;6.378;2023-08-12T11:29:01;4.45;;;1.63;;
53775;SDS011;44276;49.534;6.378;2023-08-12T11:31:37;3.57;;;1.30;;
53775;SDS011;44276;49.534;6.378;2023-08-12T11:34:06;4.30;;;1.33;;
53775;SDS011;44276;49.534;6.378;2023-08-12T11:36:35;2.28;;;1.10;;
53775;SDS011;44276;49.534;6.378;2023-08-12T11:39:03;1.85;;;1.13;;
53775;SDS011;44276;49.534;6.378;2023-08-12T11:41:33;2.60;;;1.10;;
53775;SDS011;44276;49.534;6.378;2023-08-12T11:44:01;6.25;;;1.30;;
53775;SDS011;44276;49.534;6.378;2023-08-12T11:46:32;3.78;;;1.95;;
53775;SDS011;44276;49.534;6.378;2023-08-12T11:49:00;3.15;;;1.42;;
53775;SDS011;44276;49.534;6.378;2023-08-12T11:51:30;1.55;;;1.00;;
53775;SDS011;44276;49.534;6.378;2023-08-12T11:53:59;3.60;;;1.90;;
53775;SDS011;44276;49.534;6.378;2023-08-12T11:56:27;2.95;;;1.45;;
53775;SDS011;44276;49.534;6.378;2023-08-12T11:58:56;2.55;;;1.10;;
53775;SDS011;44276;49.534;6.378;2023-08-12T12:01:25;1.77;;;1.48;;
53775;SDS011;44276;49.534;6.378;2023-08-12T12:03:54;3.38;;;1.60;;
53775;SDS011;44276;49.534;6.378;2023-08-12T12:06:31;1.92;;;1.20;;
53775;SDS011;44276;49.534;6.378;2023-08-12T12:09:01;1.65;;;1.10;;
53775;SDS011;44276;49.534;6.378;2023-08-12T12:11:31;4.45;;;1.70;;
53775;SDS011;44276;49.534;6.378;2023-08-12T12:14:01;3.35;;;1.70;;
53775;SDS011;44276;49.534;6.378;2023-08-12T12:16:39;2.88;;;1.48;;
53775;SDS011;44276;49.534;6.378;2023-08-12T12:19:12;3.00;;;1.30;;
53775;SDS011;44276;49.534;6.378;2023-08-12T12:21:47;2.88;;;1.30;;
53775;SDS011;44276;49.534;6.378;2023-08-12T12:24:17;6.72;;;1.73;;
53775;SDS011;44276;49.534;6.378;2023-08-12T12:26:47;3.53;;;0.93;;
53775;SDS011;44276;49.534;6.378;2023-08-12T12:29:16;3.38;;;1.50;;
53775;SDS011;44276;49.534;6.378;2023-08-12T12:31:44;3.25;;;1.50;;
53775;SDS011;44276;49.534;6.378;2023-08-12T12:34:14;3.85;;;1.15;;
53775;SDS011;44276;49.534;6.378;2023-08-12T12:36:43;5.47;;;2.00;;
53775;SDS011;44276;49.534;6.378;2023-08-12T12:39:13;2.25;;;1.60;;
53775;SDS011;44276;49.534;6.378;2023-08-12T12:41:41;2.90;;;1.73;;
53775;SDS011;44276;49.534;6.378;2023-08-12T12:44:13;1.70;;;1.20;;
53775;SDS011;44276;49.534;6.378;2023-08-12T12:46:42;2.80;;;1.52;;
53775;SDS011;44276;49.534;6.378;2023-08-12T12:49:10;5.10;;;1.25;;
53775;SDS011;44276;49.534;6.378;2023-08-12T12:51:38;5.13;;;1.40;;
53775;SDS011;44276;49.534;6.378;2023-08-12T12:54:07;3.88;;;1.40;;
53775;SDS011;44276;49.534;6.378;2023-08-12T12:56:36;5.43;;;1.52;;
53775;SDS011;44276;49.534;6.378;2023-08-12T12:59:05;4.35;;;1.30;;
53775;SDS011;44276;49.534;6.378;2023-08-12T13:01:33;2.67;;;1.27;;
53775;SDS011;44276;49.534;6.378;2023-08-12T13:04:01;2.75;;;1.27;;
53775;SDS011;44276;49.534;6.378;2023-08-12T13:06:30;6.05;;;1.63;;
53775;SDS011;44276;49.534;6.378;2023-08-12T13:08:58;4.20;;;2.85;;
53775;SDS011;44276;49.534;6.378;2023-08-12T13:11:28;2.58;;;1.85;;
53775;SDS011;44276;49.534;6.378;2023-08-12T13:13:58;4.82;;;2.00;;
53775;SDS011;44276;49.534;6.378;2023-08-12T13:16:26;5.05;;;1.80;;
53775;SDS011;44276;49.534;6.378;2023-08-12T13:18:54;2.50;;;1.40;;
53775;SDS011;44276;49.534;6.378;2023-08-12T13:21:24;3.17;;;1.75;;
53775;SDS011;44276;49.534;6.378;2023-08-12T13:23:53;2.45;;;1.60;;
53775;SDS011;44276;49.534;6.378;2023-08-12T13:26:22;2.58;;;1.73;;
53775;SDS011;44276;49.534;6.378;2023-08-12T13:28:50;5.47;;;2.45;;
53775;SDS011;44276;49.534;6.378;2023-08-12T13:31:20;6.25;;;2.20;;
53775;SDS011;44276;49.534;6.378;2023-08-12T13:33:49;3.58;;;1.88;;
53775;SDS011;44276;49.534;6.378;2023-08-12T13:36:18;2.03;;;1.77;;
53775;SDS011;44276;49.534;6.378;2023-08-12T13:38:46;4.05;;;1.63;;
53775;SDS011;44276;49.534;6.378;2023-08-12T13:41:14;3.35;;;1.52;;
53775;SDS011;44276;49.534;6.378;2023-08-12T13:43:43;6.15;;;1.75;;
53775;SDS011;44276;49.534;6.378;2023-08-12T13:46:11;4.50;;;2.15;;
53775;SDS011;44276;49.534;6.378;2023-08-12T13:48:41;3.50;;;1.60;;
53775;SDS011;44276;49.534;6.378;2023-08-12T13:51:09;3.70;;;1.90;;
53775;SDS011;44276;49.534;6.378;2023-08-12T13:53:38;3.88;;;1.40;;
53775;SDS011;44276;49.534;6.378;2023-08-12T13:56:06;4.60;;;1.65;;
53775;SDS011;44276;49.534;6.378;2023-08-12T13:58:34;2.20;;;1.25;;
53775;SDS011;44276;49.534;6.378;2023-08-12T14:01:02;4.88;;;1.88;;
53775;SDS011;44276;49.534;6.378;2023-08-12T14:03:31;3.58;;;2.10;;
53775;SDS011;44276;49.534;6.378;2023-08-12T14:06:01;7.95;;;1.45;;
53775;SDS011;44276;49.534;6.378;2023-08-12T14:08:30;2.10;;;1.20;;
53775;SDS011;44276;49.534;6.378;2023-08-12T14:10:58;3.17;;;1.70;;
53775;SDS011;44276;49.534;6.378;2023-08-12T14:13:27;5.20;;;1.77;;
53775;SDS011;44276;49.534;6.378;2023-08-12T14:15:55;4.25;;;2.00;;
53775;SDS011;44276;49.534;6.378;2023-08-12T14:18:23;2.92;;;0.95;;
53775;SDS011;44276;49.534;6.378;2023-08-12T14:20:52;4.93;;;1.70;;
53775;SDS011;44276;49.534;6.378;2023-08-12T14:23:21;3.25;;;1.45;;
53775;SDS011;44276;49.534;6.378;2023-08-12T14:25:50;7.30;;;2.25;;
53775;SDS011;44276;49.534;6.378;2023-08-12T14:28:18;2.95;;;1.52;;
53775;SDS011;44276;49.534;6.378;2023-08-12T14:30:46;2.45;;;1.90;;
53775;SDS011;44276;49.534;6.378;2023-08-12T14:33:15;9.77;;;3.05;;
53775;SDS011;44276;49.534;6.378;2023-08-12T14:35:43;4.35;;;1.65;;
53775;SDS011;44276;49.534;6.378;2023-08-12T14:38:11;2.50;;;1.42;;
53775;SDS011;44276;49.534;6.378;2023-08-12T14:40:41;4.70;;;2.08;;
53775;SDS011;44276;49.534;6.378;2023-08-12T14:43:09;7.80;;;2.58;;
53775;SDS011;44276;49.534;6.378;2023-08-12T14:45:37;3.92;;;2.00;;
53775;SDS011;44276;49.534;6.378;2023-08-12T14:48:06;7.20;;;2.90;;
53775;SDS011;44276;49.534;6.378;2023-08-12T14:50:36;4.55;;;2.25;;